Marko Baumgartner

Olheiro - Austria Wien
23 Abr 2028
Domingo
Processo

Personalidade

Adaptabilidade (13) Ambição (9) Controvérsia (11) Lealdade (9) Pressão (4) Profissionalismo (2) Espírito Esportivo (3) Temperamento (15)

Perfil

Estilo de Treinamento Democrático
Licença Continental C
Determinação 8
Gestão de Pessoas 4
Motivação 7
Disciplina 5
Satisfação no Trabalho
100%
Fadiga
0%
Função Olheiro
Salário 41.5K p/s
Contrato 14.03.2030

Desempenho

Comportamento Bom
Eficácia do Treinamento
52%
Desenvolvimento do Jogador
25%
Prevenção de Lesões
35%
Implementação Tática
65%

Eventos Recentes

Participou de uma reunião de recrutamento 7d atrás
Participou de uma reunião de recrutamento 14d atrás
Participou de uma reunião de recrutamento 21d atrás
Participou de uma reunião de recrutamento 28d atrás
Participou de uma reunião de recrutamento 35d atrás
Participou de uma reunião de recrutamento 42d atrás
Participou de uma reunião de recrutamento 49d atrás
Participou de uma reunião de recrutamento 56d atrás

Monitorando agora

80
Jogador Clube Status Habilidade Confiança Observado Última observação Último voto
Emmanuel Agyemang Wolfsberger AC Ativo 104 / 115 55% 1 01.06.2027 -
Jannis Bärtl Bayern Munich Ativo 103 / 103 40% 1 31.05.2027 -
Gonçalo Ribeiro Porto Ativo 104 / 102 40% 1 31.05.2027 -
Mohamed Camara Asante Kotoko Ativo 119 / 103 40% 2 30.05.2027 -
George Wickens Lincoln City Ativo 111 / 117 40% 1 30.05.2027 -
Konta Ismaily Ativo 101 / 98 40% 1 29.05.2027 -
Pedro Vian Seewald Dolomiti Bellunesi Ativo 91 / 100 40% 1 29.05.2027 -
Federico Matarán Giana Erminio Ativo 98 / 104 40% 1 28.05.2027 -
Edwin Asamoah Berekum Chelsea Ativo 76 / 84 40% 1 28.05.2027 -
Fernando Dickes Hamburger SV Ativo 91 / 108 40% 1 27.05.2027 -
Leonardo Sosa Rosario Central Ativo 99 / 103 40% 1 27.05.2027 -
Gianluca Saro Foggia Ativo 102 / 109 40% 2 26.05.2027 -
Killian Cahill Leyton Orient Ativo 105 / 106 40% 1 26.05.2027 -
Ivan Pakholiuk Kolos Ativo 131 / 115 40% 1 25.05.2027 -
Niccolò Chiorra Casarano Ativo 115 / 101 40% 1 25.05.2027 -
Zane Albarus Shrewsbury Town Ativo 99 / 98 40% 3 24.05.2027 -
Pietro Reggiori Pro Patria Ativo 97 / 99 40% 1 24.05.2027 -
Bence Dárdai VfL Wolfsburg Ativo 140 / 135 40% 2 23.05.2027 -
Riley Owen Stevenage Ativo 104 / 105 40% 1 21.05.2027 -
Samuele di Benedetto Twente Ativo 113 / 118 40% 1 21.05.2027 -
Leon Klanac Bayern Munich Ativo 96 / 105 40% 2 18.05.2027 -
Simon Caillet Sion Ativo 97 / 97 40% 1 18.05.2027 -
Marcello Trippel Borussia Mönchengladbach Ativo 94 / 99 40% 1 17.05.2027 -
Germán Barbas Burgos Ativo 93 / 111 40% 2 14.05.2027 -
Filip Marschall Stevenage Ativo 116 / 113 40% 1 12.05.2027 -
Matteo Sorzi Carpi Ativo 106 / 100 40% 1 12.05.2027 -
Tarek Bousseder ES Setif Ativo 107 / 108 40% 2 11.05.2027 -
Anthony Patterson Wrexham Ativo 138 / 129 40% 4 10.05.2027 -
Elia Caprile Cagliari Ativo 141 / 145 40% 2 10.05.2027 -
Elia Boseggia Novara Ativo 103 / 112 40% 1 09.05.2027 -
Santiago Direnna Miramar Misiones Ativo 75 / 82 40% 1 09.05.2027 -
Ivan Giraldo Valencia Ativo 129 / 125 40% 1 08.05.2027 -
Ezra Mayers West Ham United Ativo 123 / 122 40% 1 08.05.2027 -
Manuel Roffo Hajduk Split Ativo 129 / 133 40% 1 07.05.2027 -
Josh King Newcastle United Ativo 145 / 146 40% 1 06.05.2027 -
Kermit Modiba SuperSport United Ativo 80 / 103 40% 1 03.05.2027 -
Martin James Köln Ativo 85 / 100 40% 1 02.05.2027 -
Victor Hernandez Santa Fe Ativo 117 / 126 40% 1 01.05.2027 -
Salvador Blopá Sporting CP Ativo 115 / 122 40% 1 30.04.2027 -
Kamaldeen Atiemo Wa All Stars Ativo 100 / 103 40% 1 30.04.2027 -
Will Dennis Milton Keynes Dons Ativo 114 / 110 40% 1 27.04.2027 -
William Rovida Pro Patria Ativo 108 / 107 40% 1 27.04.2027 -
Myles Roberts Cambridge United Ativo 104 / 103 40% 2 23.04.2027 -
Ivor Pandur Hull City Ativo 129 / 123 40% 1 22.04.2027 -
Finn Jeltsch VfB Stuttgart Ativo 126 / 141 40% 2 18.04.2027 -
Francis Gomez Cardiff City Ativo 102 / 112 40% 2 18.04.2027 -
Jenson Jones Walsall Ativo 98 / 99 40% 2 17.04.2027 -
Jan Bürger Northampton Town Ativo 114 / 117 40% 1 17.04.2027 -
Chari Giwa US Bougouni Ativo 92 / 84 40% 1 14.04.2027 -
David Ozoh Derby County Ativo 117 / 126 40% 1 14.04.2027 -
Jack Currie Oxford United Ativo 115 / 123 40% 1 13.04.2027 -
Ronnie Edwards Queens Park Rangers Ativo 139 / 132 40% 1 13.04.2027 -
Edoardo Bove Watford Ativo 142 / 132 40% 2 12.04.2027 -
Adam Randell Bristol City Ativo 131 / 130 40% 1 12.04.2027 -
Tommaso Cecotti Carpi Ativo 85 / 100 40% 1 11.04.2027 -
Caleb Yirenkyi Coventry City Ativo 144 / 140 40% 1 08.04.2027 -
Shea Charles Southampton Ativo 126 / 135 40% 1 07.04.2027 -
Leighton Clarkson Blackpool Ativo 112 / 119 40% 2 05.04.2027 -
Josh Tymon Swansea City Ativo 122 / 122 40% 1 03.04.2027 -
Max Johnston Derby County Ativo 133 / 130 40% 1 03.04.2027 -
Milan van Ewijk Coventry City Ativo 133 / 128 40% 2 02.04.2027 -
Max Rosenfelder SC Freiburg Ativo 139 / 134 40% 1 02.04.2027 -
Nathan Bishop AFC Wimbledon Ativo 96 / 103 40% 1 01.04.2027 -
Valerio Boffelli Cavese Ativo 101 / 107 40% 1 01.04.2027 -
Jacob Greaves Ipswich Town Ativo 130 / 132 40% 1 24.03.2027 -
Ethan Pye Stockport County Ativo 125 / 119 40% 1 23.03.2027 -
Lee Buchanan Sheffield Wednesday Ativo 125 / 119 40% 1 23.03.2027 -
Adis Jašić Zamalek Ativo 116 / 122 40% 1 20.03.2027 -
Alexander Prass TSG Hoffenheim Ativo 136 / 135 40% 1 20.03.2027 -
Arthur Beroe Ativo 128 / 120 40% 1 18.03.2027 -
Jordan Amissah Burton Albion Ativo 101 / 101 40% 1 18.03.2027 -
Fran Vieites Walsall Ativo 128 / 120 40% 1 16.03.2027 -
Radek Vítek Middlesbrough Ativo 142 / 142 40% 1 16.03.2027 -
Andrii Kozhukhar Veres Ativo 109 / 108 40% 1 14.03.2027 -
Michael Cooper Sheffield United Ativo 121 / 126 40% 2 12.03.2027 -
Maduka Okoye Udinese Ativo 142 / 140 40% 1 07.03.2027 -
Oliver Skipp Leicester City Ativo 124 / 130 40% 1 05.03.2027 -
Brian De Keersmaecker Oxford United Ativo 126 / 125 40% 1 02.03.2027 -
Sorba Thomas Stoke City Ativo 125 / 131 40% 1 31.12.2026 -
Daniel Kyerewaa Reading Ativo 109 / 110 40% 1 31.12.2026 -